Time;durP1;ratioP1;P1;durP2;ratioP2;P2;SDS_P1;SDS_P2;PMS_P1;PMS_P2;Temp;Humidity;BMP_temperature;BMP_pressure;BME280_temperature;BME280_humidity;BME280_pressure;Samples;Min_cycle;Max_cycle;Signal;HPM_P1;HPM_P2
2022/12/17 13:08:07;;;;;;;29.92;16.63;;;;;;;0.15;89.41;99418.88;5044218;28;20057;-63
2022/12/17 13:10:53;;;;;;;31.75;17.17;;;;;;;0.01;88.09;99421.63;5046763;28;20055;-64
2022/12/17 13:13:54;;;;;;;35.08;18.92;;;;;;;0.38;89.38;99430.53;5046563;28;20392;-64
2022/12/17 13:17:17;;;;;;;130.30;56.75;;;;;;;0.22;91.09;99436.78;5033371;28;20044;-63
2022/12/17 13:20:23;;;;;;;36.80;20.73;;;;;;;0.18;87.45;99429.97;5025911;28;20108;-63
2022/12/17 13:23:08;;;;;;;28.20;16.15;;;;;;;0.07;89.51;99427.56;5025229;28;20065;-64
2022/12/17 13:26:29;;;;;;;28.75;15.95;;;;;;;0.54;97.36;99428.56;5023337;28;20076;-65
2022/12/17 13:29:23;;;;;;;26.52;15.05;;;;;;;0.16;86.89;99429.16;4964492;28;20104;-64
2022/12/17 13:32:19;;;;;;;33.15;16.05;;;;;;;0.67;84.85;99440.34;4964425;28;20138;-63
2022/12/17 13:35:38;;;;;;;25.58;14.25;;;;;;;1.18;85.38;99448.94;4978666;28;20046;-63
2022/12/17 13:38:50;;;;;;;24.40;13.88;;;;;;;1.66;97.68;99446.28;4968899;28;20047;-64
2022/12/17 13:41:37;;;;;;;26.48;14.70;;;;;;;2.05;81.38;99440.28;4961949;28;20098;-64
2022/12/17 13:44:30;;;;;;;25.92;13.82;;;;;;;1.47;81.37;99457.84;4961317;28;20380;-65
2022/12/17 13:47:23;;;;;;;24.38;14.18;;;;;;;0.89;81.59;99459.78;4963715;28;20047;-64
2022/12/17 13:50:29;;;;;;;27.25;13.93;;;;;;;0.97;83.10;99471.69;4980172;28;20054;-62
2022/12/17 13:53:14;;;;;;;25.70;13.30;;;;;;;0.68;88.77;99472.16;4978811;28;20053;-63
2022/12/17 13:55:59;;;;;;;24.20;13.10;;;;;;;0.51;85.51;99478.44;4965401;28;20454;-62
2022/12/17 13:58:43;;;;;;;23.35;13.25;;;;;;;0.71;81.56;99483.28;4980111;28;20082;-63
2022/12/17 14:01:29;;;;;;;23.77;13.35;;;;;;;0.62;83.24;99491.16;4965976;28;20058;-65
2022/12/17 14:04:23;;;;;;;24.40;12.40;;;;;;;0.57;85.71;99501.56;4970596;28;20533;-65
2022/12/17 14:07:10;;;;;;;23.33;13.02;;;;;;;-0.06;86.08;99511.91;5047826;28;20049;-65
2022/12/17 14:09:56;;;;;;;24.30;12.43;;;;;;;-0.05;87.65;99516.16;5037371;28;20527;-65
2022/12/17 14:12:40;;;;;;;20.17;11.88;;;;;;;0.25;89.18;99523.50;5036075;28;20048;-65
2022/12/17 14:15:28;;;;;;;21.58;12.38;;;;;;;0.36;91.05;99524.22;5048243;28;20052;-64
2022/12/17 14:18:17;;;;;;;20.35;11.98;;;;;;;0.19;85.43;99542.50;5046198;28;20141;-64
2022/12/17 14:21:01;;;;;;;22.13;12.07;;;;;;;-0.17;86.96;99548.09;5049144;28;20045;-64
2022/12/17 14:23:48;;;;;;;22.20;12.77;;;;;;;-0.28;92.37;99553.38;5044883;28;20385;-64
2022/12/17 14:26:32;;;;;;;24.42;12.88;;;;;;;-0.26;89.47;99556.78;5051853;28;20051;-63
2022/12/17 14:29:22;;;;;;;24.27;12.63;;;;;;;-0.31;86.98;99563.69;5053918;28;20124;-64
2022/12/17 14:32:41;;;;;;;22.40;11.90;;;;;;;-0.29;89.80;99567.13;5052486;28;20052;-64
2022/12/17 14:35:38;;;;;;;19.05;11.00;;;;;;;-0.34;89.85;99573.22;5034081;28;20401;-63
2022/12/17 14:38:24;;;;;;;23.92;12.02;;;;;;;-0.07;91.93;99571.19;5043842;28;20049;-64
2022/12/17 14:44:24;;;;;;;20.20;10.73;;;;;;;-0.50;90.21;99573.34;5076740;28;20045;-64
2022/12/17 14:47:35;;;;;;;20.83;12.30;;;;;;;-0.68;90.04;99579.53;5040933;28;20487;-65
2022/12/17 14:50:20;;;;;;;22.50;12.00;;;;;;;-0.79;89.19;99588.22;5034189;28;20049;-64
2022/12/17 14:53:26;;;;;;;23.83;12.50;;;;;;;-0.82;93.44;99583.09;5049664;28;20057;-64
2022/12/17 14:56:21;;;;;;;20.40;11.43;;;;;;;-0.80;89.65;99593.38;5048115;28;20049;-64
2022/12/17 14:59:31;;;;;;;22.30;12.18;;;;;;;-0.88;94.30;99595.97;5045115;28;20045;-64
2022/12/17 15:02:22;;;;;;;20.13;11.48;;;;;;;-0.84;89.45;99604.53;5045399;28;20407;-64
2022/12/17 15:05:13;;;;;;;20.25;11.75;;;;;;;-1.07;88.54;99605.56;5050509;28;20484;-64
2022/12/17 15:07:57;;;;;;;23.10;12.18;;;;;;;-0.98;89.87;99609.81;5051381;28;20080;-64
2022/12/17 15:10:42;;;;;;;24.92;12.30;;;;;;;-0.97;88.98;99609.78;5012284;28;20053;-64
2022/12/17 15:13:27;;;;;;;20.52;11.57;;;;;;;-1.10;93.57;99606.47;5011379;28;20051;-64
2022/12/17 15:16:12;;;;;;;20.40;10.43;;;;;;;-0.95;90.74;99622.66;5011570;28;20057;-64
2022/12/17 15:18:56;;;;;;;18.02;10.57;;;;;;;-1.00;92.48;99620.13;5007118;28;20157;-63
2022/12/17 15:21:42;;;;;;;19.98;11.18;;;;;;;-0.83;89.89;99637.16;5004993;28;20500;-63
2022/12/17 15:24:27;;;;;;;22.15;11.80;;;;;;;-1.06;91.18;99640.75;5012479;28;20048;-64
2022/12/17 15:27:15;;;;;;;21.38;11.27;;;;;;;-0.67;92.76;99636.13;5012874;28;20058;-63
2022/12/17 15:29:59;;;;;;;21.58;11.85;;;;;;;-0.83;88.38;99647.44;5004831;28;20104;-63
2022/12/17 15:32:44;;;;;;;20.60;11.43;;;;;;;-0.98;92.03;99644.13;5009149;28;20509;-63
2022/12/17 15:35:29;;;;;;;22.38;11.75;;;;;;;-1.14;90.97;99651.91;5012495;28;20061;-62
2022/12/17 15:38:13;;;;;;;24.02;11.98;;;;;;;-1.10;90.17;99655.34;5003176;28;20437;-62
2022/12/17 15:43:09;;;;;;;21.27;11.15;;;;;;;-1.15;91.30;99664.78;5008100;28;20045;-62
2022/12/17 15:44:07;;;;;;;20.85;11.60;;;;;;;-1.12;92.00;99670.78;5011781;28;20504;-63
2022/12/17 15:46:51;;;;;;;21.73;12.13;;;;;;;-1.07;95.95;99670.75;5011521;28;20100;-63
2022/12/17 15:49:36;;;;;;;21.35;12.77;;;;;;;-1.08;97.07;99673.34;5003884;28;20042;-63
2022/12/17 15:52:20;;;;;;;26.08;13.40;;;;;;;-1.04;96.40;99670.72;5012337;28;20046;-63
2022/12/17 15:55:08;;;;;;;22.85;14.20;;;;;;;-1.13;97.23;99678.50;5012141;28;20049;-62
2022/12/17 15:57:53;;;;;;;24.60;13.23;;;;;;;-1.32;99.68;99670.03;5012279;28;20050;-63
2022/12/17 16:00:38;;;;;;;24.67;14.07;;;;;;;-1.04;100.00;99672.44;5012025;28;20062;-63
2022/12/17 16:03:23;;;;;;;22.58;12.73;;;;;;;-1.23;100.00;99680.28;4997274;28;20133;-63
2022/12/17 16:06:08;;;;;;;22.05;12.35;;;;;;;-0.83;100.00;99691.19;5011501;28;20417;-62
2022/12/17 16:08:52;;;;;;;23.55;12.85;;;;;;;-0.70;100.00;99679.91;5025699;28;20064;-63
2022/12/17 16:11:37;;;;;;;21.85;11.57;;;;;;;-0.78;100.00;99704.84;5049959;28;20037;-63
2022/12/17 16:14:22;;;;;;;21.25;11.63;;;;;;;-0.75;100.00;99716.00;5051674;28;20041;-62
2022/12/17 16:17:09;;;;;;;21.85;11.98;;;;;;;-0.74;99.61;99722.00;5051608;28;20059;-62
2022/12/17 16:19:53;;;;;;;21.38;12.02;;;;;;;-0.96;98.77;99729.84;5051638;28;20049;-63
2022/12/17 16:22:38;;;;;;;20.90;10.57;;;;;;;-1.07;99.47;99732.47;5050849;28;20094;-62
2022/12/17 16:25:22;;;;;;;22.35;12.63;;;;;;;-0.62;100.00;99732.22;5049956;28;20056;-62
2022/12/17 16:28:08;;;;;;;22.73;13.77;;;;;;;-0.67;100.00;99738.25;5035237;28;20053;-62
2022/12/17 16:31:06;;;;;;;20.42;11.85;;;;;;;-0.70;100.00;99746.84;5050394;28;20049;-63
2022/12/17 16:33:51;;;;;;;20.42;11.52;;;;;;;-1.19;100.00;99751.41;5051110;28;20052;-63
2022/12/17 16:36:35;;;;;;;21.05;12.18;;;;;;;-1.29;99.81;99762.59;5050692;28;20099;-62
2022/12/17 16:39:20;;;;;;;20.42;11.88;;;;;;;-1.28;100.00;99769.44;5050245;28;20481;-63
2022/12/17 16:42:05;;;;;;;19.65;11.68;;;;;;;-1.20;99.13;99769.41;5035925;28;20037;-64
2022/12/17 16:44:50;;;;;;;22.10;12.77;;;;;;;-1.26;99.86;99778.03;5049643;28;20901;-63
2022/12/17 16:47:34;;;;;;;25.10;13.02;;;;;;;-1.31;99.73;99774.59;5049519;28;20048;-63
2022/12/17 16:50:19;;;;;;;23.33;12.50;;;;;;;-1.41;97.81;99773.78;5050850;28;20119;-63
2022/12/17 16:53:03;;;;;;;19.00;11.85;;;;;;;-1.34;97.16;99782.31;5049875;28;20047;-63
2022/12/17 16:55:48;;;;;;;22.13;12.38;;;;;;;-1.49;98.21;99786.66;5050248;28;20388;-63
2022/12/17 16:58:33;;;;;;;22.98;12.25;;;;;;;-1.65;98.11;99783.28;5049115;28;20049;-62
2022/12/17 17:01:26;;;;;;;20.20;12.80;;;;;;;-1.74;98.96;99796.97;5050344;28;20045;-62
2022/12/17 17:04:12;;;;;;;20.77;12.60;;;;;;;-1.49;100.00;99799.50;5046351;28;20041;-62
2022/12/17 17:06:57;;;;;;;21.02;11.50;;;;;;;-1.41;99.16;99802.06;5050389;28;20525;-62
2022/12/17 17:09:41;;;;;;;19.98;11.57;;;;;;;-1.41;98.27;99797.78;5050101;28;20148;-62
2022/12/17 17:12:26;;;;;;;20.13;12.25;;;;;;;-1.50;96.73;99805.50;5050473;28;20052;-64
2022/12/17 17:15:10;;;;;;;20.13;11.60;;;;;;;-1.52;97.90;99802.94;5050180;28;20037;-62
2022/12/17 17:17:55;;;;;;;20.95;11.90;;;;;;;-1.40;99.43;99804.63;5050154;28;20431;-62
2022/12/17 17:20:39;;;;;;;19.30;11.57;;;;;;;-1.38;96.48;99804.63;5050414;28;20045;-62
2022/12/17 17:23:24;;;;;;;20.90;11.85;;;;;;;-1.33;97.75;99810.59;5047712;28;20052;-61
2022/12/17 17:26:11;;;;;;;18.48;10.93;;;;;;;-1.34;100.00;99806.34;5051775;28;20049;-63
2022/12/17 17:29:00;;;;;;;20.15;12.18;;;;;;;-1.43;96.93;99802.06;5047781;28;20052;-62
2022/12/17 17:31:44;;;;;;;20.10;10.55;;;;;;;-1.23;100.00;99808.88;5048727;28;20552;-66
2022/12/17 17:34:29;;;;;;;19.33;11.88;;;;;;;-0.92;100.00;99808.75;5059049;28;20048;-63
2022/12/17 17:37:14;;;;;;;21.13;11.80;;;;;;;-1.36;99.69;99802.91;5047630;28;20102;-64
2022/12/17 17:39:58;;;;;;;21.80;12.05;;;;;;;-1.56;95.82;99810.66;5048023;28;20385;-64
2022/12/17 17:42:43;;;;;;;18.67;11.18;;;;;;;-0.98;100.00;99820.78;5048577;28;20052;-62
2022/12/17 17:45:28;;;;;;;20.98;11.90;;;;;;;-1.27;98.02;99827.72;5047789;28;20045;-63
2022/12/17 17:48:14;;;;;;;19.42;11.38;;;;;;;-1.61;98.33;99826.09;5046418;28;20099;-63
2022/12/17 17:51:02;;;;;;;19.38;11.23;;;;;;;-1.50;100.00;99831.19;5059647;28;20472;-60
2022/12/17 17:53:49;;;;;;;20.45;11.38;;;;;;;-1.43;100.00;99832.91;5048059;28;20483;-61
2022/12/17 17:56:38;;;;;;;21.52;12.20;;;;;;;-1.88;99.55;99841.50;5049217;28;20137;-61
2022/12/17 17:59:22;;;;;;;20.42;12.85;;;;;;;-1.89;98.84;99838.94;5047262;28;20053;-61
2022/12/17 18:02:11;;;;;;;23.55;12.77;;;;;;;-1.98;100.00;99838.13;5047825;28;20051;-61
2022/12/17 18:04:57;;;;;;;21.15;12.32;;;;;;;-2.22;100.00;99836.38;5038754;28;20056;-59
2022/12/17 18:07:44;;;;;;;21.85;12.85;;;;;;;-2.37;99.48;99844.91;5029070;28;20053;-60
2022/12/17 18:10:29;;;;;;;21.63;12.35;;;;;;;-2.22;100.00;99841.53;5046979;28;20044;-64
2022/12/17 18:16:18;;;;;;;22.02;12.80;;;;;;;-2.55;100.00;99843.16;5047689;28;20053;-61
2022/12/17 18:19:15;;;;;;;23.13;13.38;;;;;;;-2.47;100.00;99836.34;5046350;28;20115;-63
2022/12/17 18:21:59;;;;;;;26.25;14.10;;;;;;;-2.39;100.00;99833.78;5047625;28;20052;-61
2022/12/17 18:24:44;;;;;;;23.35;14.25;;;;;;;-2.48;100.00;99826.94;5045452;28;20055;-59
2022/12/17 18:27:29;;;;;;;22.42;12.77;;;;;;;-2.41;100.00;99840.63;5041488;28;20064;-61
2022/12/17 18:30:15;;;;;;;25.60;14.18;;;;;;;-2.67;100.00;99838.84;5045510;28;20072;-62
2022/12/17 18:32:59;;;;;;;24.40;13.90;;;;;;;-2.68;100.00;99840.56;5047585;28;20036;-61
2022/12/17 18:35:44;;;;;;;23.95;13.88;;;;;;;-2.80;100.00;99843.06;5047787;28;20420;-60
2022/12/17 18:38:29;;;;;;;23.98;13.10;;;;;;;-2.80;100.00;99830.25;5046751;28;20143;-60
2022/12/17 18:44:20;;;;;;;26.85;14.57;;;;;;;-2.62;100.00;99850.84;5047696;28;20049;-60
2022/12/17 18:47:05;;;;;;;23.17;12.27;;;;;;;-2.70;100.00;99859.38;5048312;28;20049;-59
2022/12/17 18:49:50;;;;;;;25.80;14.30;;;;;;;-2.75;100.00;99856.78;5047917;28;20128;-59
2022/12/17 18:52:34;;;;;;;28.45;13.25;;;;;;;-2.67;100.00;99873.06;5044384;28;20471;-60
2022/12/17 18:55:19;;;;;;;31.08;16.23;;;;;;;-2.04;100.00;99878.34;5049275;28;20132;-61
2022/12/17 18:58:03;;;;;;;40.92;18.80;;;;;;;-1.60;100.00;99889.50;5048619;28;20037;-60
2022/12/17 19:00:49;;;;;;;32.17;16.15;;;;;;;-1.49;100.00;99903.22;5046162;28;20082;-59
2022/12/17 19:03:34;;;;;;;32.33;15.98;;;;;;;-1.43;100.00;99916.91;5047052;28;20049;-60
2022/12/17 19:06:19;;;;;;;27.20;15.05;;;;;;;-2.33;98.93;99920.25;5046781;28;20045;-64
2022/12/17 19:09:06;;;;;;;28.02;14.63;;;;;;;-2.02;100.00;99935.69;5047304;28;20137;-60
2022/12/17 19:11:52;;;;;;;27.75;15.13;;;;;;;-1.98;100.00;99942.56;5037961;28;20049;-61
2022/12/17 19:14:37;;;;;;;23.70;13.43;;;;;;;-1.76;100.00;99951.16;5051414;28;20632;-61
2022/12/17 19:17:22;;;;;;;30.60;15.63;;;;;;;-1.41;100.00;99954.63;5051596;28;20045;-61
2022/12/17 19:20:07;;;;;;;29.45;14.93;;;;;;;-1.40;100.00;99958.91;5050302;28;20040;-59
2022/12/17 19:22:52;;;;;;;28.35;14.88;;;;;;;-1.21;98.95;99969.19;5051793;28;20045;-61
2022/12/17 19:25:36;;;;;;;27.55;14.60;;;;;;;-1.39;100.00;99968.31;5050682;28;20037;-58
2022/12/17 19:28:21;;;;;;;32.10;15.23;;;;;;;-1.07;99.30;99963.16;5048737;28;20045;-59
2022/12/17 19:31:07;;;;;;;29.02;14.75;;;;;;;-0.84;100.00;99963.13;5040751;28;20652;-58
2022/12/17 19:34:04;;;;;;;24.13;13.25;;;;;;;-1.28;100.00;99977.75;5051009;28;20049;-57
2022/12/17 19:36:49;;;;;;;27.30;15.15;;;;;;;-1.16;100.00;99982.88;5047424;28;20840;-59
2022/12/17 19:39:34;;;;;;;26.13;14.68;;;;;;;-1.12;100.00;99982.03;5051111;28;20056;-59
2022/12/17 19:42:25;;;;;;;27.58;15.07;;;;;;;-1.24;100.00;99989.78;5040703;28;20835;-59
2022/12/17 19:45:09;;;;;;;24.40;14.07;;;;;;;-1.33;100.00;99992.31;5052085;28;20049;-58
2022/12/17 19:47:54;;;;;;;22.85;13.02;;;;;;;-1.45;100.00;99985.47;5051874;28;20124;-57
2022/12/17 19:50:39;;;;;;;22.23;12.90;;;;;;;-1.60;100.00;99992.31;5052052;28;20190;-57
2022/12/17 19:53:26;;;;;;;22.27;12.88;;;;;;;-2.04;100.00;99996.50;5050590;28;20052;-60
2022/12/17 19:56:12;;;;;;;23.02;12.38;;;;;;;-1.99;100.00;99997.34;5051022;28;20141;-60
2022/12/17 19:59:03;;;;;;;20.10;12.13;;;;;;;-1.67;100.00;99999.16;5050567;28;20033;-58
2022/12/17 20:01:50;;;;;;;21.27;11.88;;;;;;;-1.59;100.00;100006.88;5050802;28;20092;-58
2022/12/17 20:04:35;;;;;;;23.48;13.60;;;;;;;-1.56;100.00;100004.31;5048315;28;20476;-56
2022/12/17 20:07:19;;;;;;;19.60;11.57;;;;;;;-2.53;98.21;100004.00;5040404;28;20102;-57
2022/12/17 20:10:05;;;;;;;17.65;11.02;;;;;;;-2.48;100.00;100006.63;5051833;28;20059;-54
2022/12/17 20:12:49;;;;;;;20.42;11.63;;;;;;;-2.65;99.81;100012.50;5051336;28;20067;-57
2022/12/17 20:15:34;;;;;;;21.60;12.00;;;;;;;-2.36;100.00;100027.19;5042134;28;20066;-57
2022/12/17 20:18:19;;;;;;;21.33;11.65;;;;;;;-2.42;100.00;100028.88;5050287;28;20416;-60
2022/12/17 20:21:05;;;;;;;21.13;11.38;;;;;;;-2.53;100.00;100032.22;5051344;28;20049;-61
2022/12/17 20:23:50;;;;;;;19.85;10.77;;;;;;;-2.57;98.96;100030.50;5050567;28;20056;-54
2022/12/17 20:26:35;;;;;;;18.75;11.15;;;;;;;-2.31;99.90;100031.50;5051083;28;20053;-58
2022/12/17 20:29:23;;;;;;;16.50;10.15;;;;;;;-2.40;98.97;100043.44;5050845;28;20045;-60
2022/12/17 20:32:07;;;;;;;19.77;10.48;;;;;;;-2.62;98.87;100045.03;5050170;28;20045;-59
2022/12/17 20:34:52;;;;;;;22.17;11.15;;;;;;;-2.48;98.29;100047.69;5039250;28;20099;-58
2022/12/17 20:37:38;;;;;;;18.58;11.30;;;;;;;-2.71;100.00;100050.97;5049681;28;20049;-58
2022/12/17 20:40:23;;;;;;;22.17;11.40;;;;;;;-2.29;100.00;100055.47;5048697;28;20087;-60
2022/12/17 20:43:08;;;;;;;20.90;10.65;;;;;;;-2.31;100.00;100052.03;5053396;28;20052;-63
2022/12/17 20:45:56;;;;;;;18.80;10.93;;;;;;;-2.29;99.96;100061.47;5050286;28;20786;-65
2022/12/17 20:48:42;;;;;;;17.92;10.27;;;;;;;-2.32;100.00;100065.72;5041275;28;20046;-60
2022/12/17 20:51:30;;;;;;;19.52;11.73;;;;;;;-2.12;100.00;100063.25;5049758;28;20396;-61
2022/12/17 20:54:14;;;;;;;21.42;12.10;;;;;;;-2.09;100.00;100062.41;5044480;28;20109;-60
2022/12/17 20:57:00;;;;;;;23.95;13.93;;;;;;;-2.12;100.00;100082.09;5049672;28;20453;-61
2022/12/17 20:59:45;;;;;;;18.45;11.13;;;;;;;-1.81;100.00;100081.34;5048620;28;20052;-59
2022/12/17 21:02:29;;;;;;;19.75;11.35;;;;;;;-1.94;100.00;100079.59;5048237;28;20056;-57
2022/12/17 21:05:16;;;;;;;21.13;12.45;;;;;;;-1.82;100.00;100089.06;5048881;28;20507;-59
2022/12/17 21:08:01;;;;;;;21.38;12.68;;;;;;;-1.71;99.33;100091.69;5051197;28;20052;-57
2022/12/17 21:10:46;;;;;;;19.95;11.95;;;;;;;-1.52;99.70;100105.44;5050252;28;20051;-61
2022/12/17 21:13:30;;;;;;;20.45;12.00;;;;;;;-1.52;100.00;100110.59;5050441;28;20045;-61
2022/12/17 21:16:19;;;;;;;21.58;12.35;;;;;;;-1.55;100.00;100111.41;5050389;28;20045;-60
2022/12/17 21:19:05;;;;;;;21.20;11.32;;;;;;;-1.50;100.00;100106.28;5048403;28;20056;-65
2022/12/17 21:21:50;;;;;;;20.17;11.80;;;;;;;-2.06;98.02;100108.66;5048884;28;20488;-60
2022/12/17 21:24:34;;;;;;;20.58;11.40;;;;;;;-2.55;98.61;100116.09;5047588;28;20045;-60
2022/12/17 21:27:21;;;;;;;18.63;11.02;;;;;;;-2.09;100.00;100114.66;5048521;28;20040;-60
2022/12/17 21:30:06;;;;;;;17.85;10.10;;;;;;;-2.05;99.61;100111.25;5047462;28;20041;-59
2022/12/17 21:32:50;;;;;;;18.90;11.38;;;;;;;-2.26;98.32;100117.13;5048897;28;20049;-61
2022/12/17 21:35:36;;;;;;;20.98;11.40;;;;;;;-2.48;99.81;100124.69;5039880;28;20515;-61
2022/12/17 21:38:21;;;;;;;18.80;10.85;;;;;;;-2.20;100.00;100131.72;5048352;28;20480;-61
2022/12/17 21:41:09;;;;;;;20.02;10.73;;;;;;;-2.19;99.22;100141.13;5046601;28;20064;-61
2022/12/17 21:43:59;;;;;;;22.13;11.23;;;;;;;-2.39;96.78;100139.28;5045740;28;20120;-62
2022/12/17 21:46:43;;;;;;;19.02;11.02;;;;;;;-2.27;99.11;100144.50;5049136;28;20045;-61
2022/12/17 21:49:28;;;;;;;19.73;11.20;;;;;;;-2.32;96.97;100143.63;5048737;28;20135;-62
2022/12/17 21:52:12;;;;;;;18.52;10.00;;;;;;;-2.33;96.77;100151.31;5049739;28;20045;-61
2022/12/17 21:54:58;;;;;;;17.45;9.65;;;;;;;-2.52;97.54;100154.63;5046315;28;20048;-60
2022/12/17 21:57:42;;;;;;;19.42;10.88;;;;;;;-2.27;98.73;100159.06;5049490;28;20056;-61
2022/12/17 22:00:27;;;;;;;18.13;9.55;;;;;;;-2.36;97.15;100159.84;5046594;28;20508;-60
2022/12/17 22:03:12;;;;;;;17.98;10.45;;;;;;;-1.98;98.87;100164.38;5048522;28;20037;-61
2022/12/17 22:05:56;;;;;;;17.67;10.40;;;;;;;-1.92;99.50;100158.41;5046881;28;20391;-61
2022/12/17 22:08:43;;;;;;;16.17;10.00;;;;;;;-1.92;97.39;100167.81;5037601;28;20068;-60
2022/12/17 22:11:27;;;;;;;15.65;10.07;;;;;;;-2.21;94.85;100168.50;5048086;28;20075;-61
2022/12/17 22:14:12;;;;;;;17.92;10.60;;;;;;;-1.90;99.40;100164.41;5049034;28;20045;-59
2022/12/17 22:16:57;;;;;;;17.35;10.50;;;;;;;-1.64;97.70;100168.81;5047095;28;20087;-59
2022/12/17 22:19:41;;;;;;;18.80;10.48;;;;;;;-1.84;98.60;100173.00;5048228;28;20116;-59
2022/12/17 22:22:26;;;;;;;17.70;9.93;;;;;;;-1.76;98.89;100173.88;5049711;28;20396;-60
2022/12/17 22:25:11;;;;;;;15.48;8.73;;;;;;;-1.79;95.56;100167.03;5049499;28;20052;-63
2022/12/17 22:27:56;;;;;;;17.02;9.50;;;;;;;-1.95;96.10;100171.22;5049235;28;20120;-59
2022/12/17 22:33:48;;;;;;;16.65;9.02;;;;;;;-1.65;94.80;100172.22;5039917;28;20128;-60
2022/12/17 22:36:33;;;;;;;17.27;9.68;;;;;;;-1.69;94.44;100177.34;5037284;28;20488;-60
2022/12/17 22:39:17;;;;;;;17.00;10.20;;;;;;;-1.71;94.66;100182.47;5045550;28;20433;-61
2022/12/17 22:45:06;;;;;;;16.23;9.05;;;;;;;-2.13;92.41;100195.97;5045812;28;20052;-59
2022/12/17 22:47:51;;;;;;;15.27;9.73;;;;;;;-1.94;95.08;100190.09;5039920;28;20132;-59
2022/12/17 22:50:36;;;;;;;15.00;9.23;;;;;;;-1.71;96.23;100187.63;5038283;28;20053;-60
2022/12/17 22:53:22;;;;;;;16.40;9.55;;;;;;;-2.20;93.09;100201.06;5052979;28;20556;-60
2022/12/17 22:56:07;;;;;;;16.63;9.45;;;;;;;-2.02;95.25;100200.28;5053247;28;20086;-60
2022/12/17 22:58:51;;;;;;;17.20;9.75;;;;;;;-2.41;92.58;100205.16;5053156;28;20045;-60
2022/12/17 23:01:36;;;;;;;15.77;8.63;;;;;;;-2.44;93.36;100212.84;5037393;28;20488;-61
2022/12/17 23:04:21;;;;;;;15.68;9.35;;;;;;;-2.55;92.90;100202.50;5052886;28;20156;-60
2022/12/17 23:07:05;;;;;;;14.57;8.77;;;;;;;-2.62;94.54;100211.84;5047534;28;20120;-60
2022/12/17 23:09:50;;;;;;;15.18;8.32;;;;;;;-2.82;94.25;100203.97;5033347;28;20049;-61
2022/12/17 23:12:50;;;;;;;15.75;9.10;;;;;;;-3.13;94.96;100205.38;5052779;28;20459;-59
2022/12/17 23:15:38;;;;;;;15.27;9.30;;;;;;;-3.38;97.30;100210.19;5052183;28;20045;-59
2022/12/17 23:18:23;;;;;;;16.80;10.07;;;;;;;-3.41;96.44;100210.16;5052791;28;20131;-60
2022/12/17 23:21:16;;;;;;;16.08;9.02;;;;;;;-3.36;97.82;100203.41;5046526;28;20459;-60
2022/12/17 23:24:01;;;;;;;15.82;8.88;;;;;;;-3.29;98.51;100200.91;5046313;28;20043;-60
2022/12/17 23:26:46;;;;;;;16.20;9.30;;;;;;;-3.53;98.68;100203.22;5052514;28;20048;-59
2022/12/17 23:29:33;;;;;;;16.50;9.40;;;;;;;-3.66;98.41;100196.19;5052191;28;20061;-59
2022/12/17 23:32:18;;;;;;;16.30;9.30;;;;;;;-3.68;98.96;100183.38;5052540;28;20049;-59
2022/12/17 23:35:03;;;;;;;15.98;8.55;;;;;;;-3.65;99.31;100195.34;5045672;28;20037;-58
2022/12/17 23:37:48;;;;;;;16.75;9.60;;;;;;;-3.78;100.00;100192.66;5052502;28;20226;-59
2022/12/17 23:40:33;;;;;;;15.75;9.65;;;;;;;-3.86;100.00;100200.22;5051195;28;20041;-59
2022/12/17 23:43:17;;;;;;;16.77;10.05;;;;;;;-3.88;99.06;100201.91;5052022;28;20460;-58
2022/12/17 23:46:02;;;;;;;14.15;8.85;;;;;;;-3.78;99.39;100205.44;5039754;28;20048;-58
2022/12/17 23:48:47;;;;;;;18.05;9.43;;;;;;;-3.81;98.44;100204.53;5051076;28;20048;-59
2022/12/17 23:51:32;;;;;;;16.23;8.98;;;;;;;-3.90;99.46;100210.41;5052425;28;20400;-59
2022/12/17 23:54:16;;;;;;;15.07;9.23;;;;;;;-3.84;99.10;100206.25;5047815;28;20057;-59
2022/12/17 23:57:01;;;;;;;16.60;9.45;;;;;;;-3.92;98.85;100210.41;5051864;28;20053;-59
2022/12/17 23:59:45;;;;;;;16.25;9.43;;;;;;;-3.84;99.67;100208.81;5051245;28;20512;-59
